sensor_id;sensor_type;location;lat;lon;timestamp;P1;durP1;ratioP1;P2;durP2;ratioP2
63738;SDS011;68816;45.558;10.070;2023-08-20T00:01:19;18.83;;;16.88;;
63738;SDS011;68816;45.558;10.070;2023-08-20T00:03:49;18.48;;;16.67;;
63738;SDS011;68816;45.558;10.070;2023-08-20T00:06:16;18.75;;;16.80;;
63738;SDS011;68816;45.558;10.070;2023-08-20T00:08:42;18.77;;;16.08;;
63738;SDS011;68816;45.558;10.070;2023-08-20T00:11:08;18.48;;;16.67;;
63738;SDS011;68816;45.558;10.070;2023-08-20T00:13:34;18.98;;;17.00;;
63738;SDS011;68816;45.558;10.070;2023-08-20T00:16:00;19.00;;;16.95;;
63738;SDS011;68816;45.558;10.070;2023-08-20T00:18:27;20.13;;;17.20;;
63738;SDS011;68816;45.558;10.070;2023-08-20T00:20:53;19.00;;;17.23;;
63738;SDS011;68816;45.558;10.070;2023-08-20T00:23:19;18.27;;;16.20;;
63738;SDS011;68816;45.558;10.070;2023-08-20T00:25:45;17.73;;;15.93;;
63738;SDS011;68816;45.558;10.070;2023-08-20T00:28:11;19.02;;;15.55;;
63738;SDS011;68816;45.558;10.070;2023-08-20T00:30:36;18.98;;;15.02;;
63738;SDS011;68816;45.558;10.070;2023-08-20T00:33:02;16.80;;;14.70;;
63738;SDS011;68816;45.558;10.070;2023-08-20T00:35:27;17.00;;;13.70;;
63738;SDS011;68816;45.558;10.070;2023-08-20T00:37:53;16.05;;;14.18;;
63738;SDS011;68816;45.558;10.070;2023-08-20T00:40:19;15.25;;;13.75;;
63738;SDS011;68816;45.558;10.070;2023-08-20T00:42:44;15.48;;;13.95;;
63738;SDS011;68816;45.558;10.070;2023-08-20T00:45:10;16.10;;;14.40;;
63738;SDS011;68816;45.558;10.070;2023-08-20T00:47:36;19.27;;;15.00;;
63738;SDS011;68816;45.558;10.070;2023-08-20T00:50:03;21.58;;;14.98;;
63738;SDS011;68816;45.558;10.070;2023-08-20T00:52:32;19.92;;;16.65;;
63738;SDS011;68816;45.558;10.070;2023-08-20T00:54:58;17.90;;;15.93;;
63738;SDS011;68816;45.558;10.070;2023-08-20T00:57:24;18.58;;;16.60;;
63738;SDS011;68816;45.558;10.070;2023-08-20T00:59:50;19.42;;;17.42;;
63738;SDS011;68816;45.558;10.070;2023-08-20T01:02:16;19.10;;;17.10;;
63738;SDS011;68816;45.558;10.070;2023-08-20T01:04:43;18.92;;;16.92;;
63738;SDS011;68816;45.558;10.070;2023-08-20T01:10:08;19.33;;;16.92;;
63738;SDS011;68816;45.558;10.070;2023-08-20T01:12:53;20.95;;;18.70;;
63738;SDS011;68816;45.558;10.070;2023-08-20T01:15:19;19.58;;;17.38;;
63738;SDS011;68816;45.558;10.070;2023-08-20T01:17:45;21.55;;;18.08;;
63738;SDS011;68816;45.558;10.070;2023-08-20T01:20:14;20.40;;;17.75;;
63738;SDS011;68816;45.558;10.070;2023-08-20T01:28:25;19.35;;;17.30;;
63738;SDS011;68816;45.558;10.070;2023-08-20T01:30:53;18.88;;;16.95;;
63738;SDS011;68816;45.558;10.070;2023-08-20T01:33:21;19.35;;;17.35;;
63738;SDS011;68816;45.558;10.070;2023-08-20T01:35:49;19.13;;;16.90;;
63738;SDS011;68816;45.558;10.070;2023-08-20T01:38:15;18.88;;;16.90;;
63738;SDS011;68816;45.558;10.070;2023-08-20T01:40:41;18.83;;;16.85;;
63738;SDS011;68816;45.558;10.070;2023-08-20T01:43:07;19.10;;;17.10;;
63738;SDS011;68816;45.558;10.070;2023-08-20T01:45:33;18.13;;;15.98;;
63738;SDS011;68816;45.558;10.070;2023-08-20T01:47:58;20.58;;;17.55;;
63738;SDS011;68816;45.558;10.070;2023-08-20T01:50:24;20.63;;;17.17;;
63738;SDS011;68816;45.558;10.070;2023-08-20T01:52:50;17.88;;;15.93;;
63738;SDS011;68816;45.558;10.070;2023-08-20T01:55:15;18.15;;;16.30;;
63738;SDS011;68816;45.558;10.070;2023-08-20T01:57:41;23.05;;;17.33;;
63738;SDS011;68816;45.558;10.070;2023-08-20T02:00:07;20.30;;;17.27;;
63738;SDS011;68816;45.558;10.070;2023-08-20T02:02:33;17.92;;;16.08;;
63738;SDS011;68816;45.558;10.070;2023-08-20T02:04:59;19.25;;;17.33;;
63738;SDS011;68816;45.558;10.070;2023-08-20T02:07:25;19.83;;;17.77;;
63738;SDS011;68816;45.558;10.070;2023-08-20T02:09:50;19.13;;;17.05;;
63738;SDS011;68816;45.558;10.070;2023-08-20T02:12:17;19.55;;;17.50;;
63738;SDS011;68816;45.558;10.070;2023-08-20T02:14:43;19.27;;;17.33;;
63738;SDS011;68816;45.558;10.070;2023-08-20T02:17:09;19.35;;;17.13;;
63738;SDS011;68816;45.558;10.070;2023-08-20T02:19:35;21.27;;;18.60;;
63738;SDS011;68816;45.558;10.070;2023-08-20T02:22:00;20.70;;;18.25;;
63738;SDS011;68816;45.558;10.070;2023-08-20T02:24:26;20.17;;;18.08;;
63738;SDS011;68816;45.558;10.070;2023-08-20T02:26:51;19.85;;;17.70;;
63738;SDS011;68816;45.558;10.070;2023-08-20T02:29:17;19.50;;;17.52;;
63738;SDS011;68816;45.558;10.070;2023-08-20T02:31:43;19.90;;;17.58;;
63738;SDS011;68816;45.558;10.070;2023-08-20T02:34:09;20.42;;;18.30;;
63738;SDS011;68816;45.558;10.070;2023-08-20T02:36:34;25.45;;;18.75;;
63738;SDS011;68816;45.558;10.070;2023-08-20T02:39:00;22.88;;;17.85;;
63738;SDS011;68816;45.558;10.070;2023-08-20T02:41:26;20.60;;;17.58;;
63738;SDS011;68816;45.558;10.070;2023-08-20T02:43:51;20.25;;;17.23;;
63738;SDS011;68816;45.558;10.070;2023-08-20T02:46:17;20.52;;;18.40;;
63738;SDS011;68816;45.558;10.070;2023-08-20T02:48:42;19.58;;;17.52;;
63738;SDS011;68816;45.558;10.070;2023-08-20T02:51:08;20.45;;;17.15;;
63738;SDS011;68816;45.558;10.070;2023-08-20T02:53:33;19.80;;;17.60;;
63738;SDS011;68816;45.558;10.070;2023-08-20T02:55:59;19.70;;;17.65;;
63738;SDS011;68816;45.558;10.070;2023-08-20T02:58:25;18.65;;;16.65;;
63738;SDS011;68816;45.558;10.070;2023-08-20T03:00:50;18.63;;;16.60;;
63738;SDS011;68816;45.558;10.070;2023-08-20T03:03:16;19.02;;;16.80;;
63738;SDS011;68816;45.558;10.070;2023-08-20T03:05:42;20.80;;;16.48;;
63738;SDS011;68816;45.558;10.070;2023-08-20T03:08:07;19.63;;;16.63;;
63738;SDS011;68816;45.558;10.070;2023-08-20T03:10:33;18.55;;;16.65;;
63738;SDS011;68816;45.558;10.070;2023-08-20T03:13:00;19.45;;;16.85;;
63738;SDS011;68816;45.558;10.070;2023-08-20T03:15:26;18.55;;;16.65;;
63738;SDS011;68816;45.558;10.070;2023-08-20T03:17:55;18.60;;;16.55;;
63738;SDS011;68816;45.558;10.070;2023-08-20T03:20:21;19.05;;;17.05;;
63738;SDS011;68816;45.558;10.070;2023-08-20T03:22:47;18.58;;;16.60;;
63738;SDS011;68816;45.558;10.070;2023-08-20T03:25:13;20.90;;;17.30;;
63738;SDS011;68816;45.558;10.070;2023-08-20T03:27:38;19.13;;;17.10;;
63738;SDS011;68816;45.558;10.070;2023-08-20T03:30:04;19.10;;;17.08;;
63738;SDS011;68816;45.558;10.070;2023-08-20T03:32:30;20.95;;;16.70;;
63738;SDS011;68816;45.558;10.070;2023-08-20T03:34:56;19.88;;;16.13;;
63738;SDS011;68816;45.558;10.070;2023-08-20T03:37:24;18.92;;;16.95;;
63738;SDS011;68816;45.558;10.070;2023-08-20T03:39:50;19.27;;;17.30;;
63738;SDS011;68816;45.558;10.070;2023-08-20T03:42:16;19.52;;;17.42;;
63738;SDS011;68816;45.558;10.070;2023-08-20T03:44:42;19.10;;;17.25;;
63738;SDS011;68816;45.558;10.070;2023-08-20T03:47:08;19.70;;;17.60;;
63738;SDS011;68816;45.558;10.070;2023-08-20T03:49:33;19.77;;;17.83;;
63738;SDS011;68816;45.558;10.070;2023-08-20T03:51:59;22.77;;;17.52;;
63738;SDS011;68816;45.558;10.070;2023-08-20T03:54:27;19.83;;;17.25;;
63738;SDS011;68816;45.558;10.070;2023-08-20T03:56:54;21.73;;;18.15;;
63738;SDS011;68816;45.558;10.070;2023-08-20T03:59:20;20.23;;;17.80;;
63738;SDS011;68816;45.558;10.070;2023-08-20T04:01:45;20.40;;;17.58;;
63738;SDS011;68816;45.558;10.070;2023-08-20T04:04:11;19.90;;;17.98;;
63738;SDS011;68816;45.558;10.070;2023-08-20T04:06:36;20.63;;;18.05;;
63738;SDS011;68816;45.558;10.070;2023-08-20T04:09:02;20.90;;;18.45;;
63738;SDS011;68816;45.558;10.070;2023-08-20T04:11:28;24.23;;;18.90;;
63738;SDS011;68816;45.558;10.070;2023-08-20T04:13:53;23.65;;;19.10;;
63738;SDS011;68816;45.558;10.070;2023-08-20T04:16:19;23.17;;;19.23;;
63738;SDS011;68816;45.558;10.070;2023-08-20T04:18:45;24.73;;;19.45;;
63738;SDS011;68816;45.558;10.070;2023-08-20T04:21:10;25.30;;;20.13;;
63738;SDS011;68816;45.558;10.070;2023-08-20T04:23:36;22.00;;;18.95;;
63738;SDS011;68816;45.558;10.070;2023-08-20T04:26:02;24.48;;;20.35;;
63738;SDS011;68816;45.558;10.070;2023-08-20T04:28:27;23.17;;;20.17;;
63738;SDS011;68816;45.558;10.070;2023-08-20T04:30:53;21.65;;;19.23;;
63738;SDS011;68816;45.558;10.070;2023-08-20T04:33:19;23.05;;;19.38;;
63738;SDS011;68816;45.558;10.070;2023-08-20T04:35:45;23.13;;;19.45;;
63738;SDS011;68816;45.558;10.070;2023-08-20T04:38:11;20.67;;;18.50;;
63738;SDS011;68816;45.558;10.070;2023-08-20T04:40:37;20.45;;;18.05;;
63738;SDS011;68816;45.558;10.070;2023-08-20T04:43:03;20.65;;;18.35;;
63738;SDS011;68816;45.558;10.070;2023-08-20T04:45:29;21.67;;;18.08;;
63738;SDS011;68816;45.558;10.070;2023-08-20T04:47:54;21.25;;;17.70;;
63738;SDS011;68816;45.558;10.070;2023-08-20T04:50:20;20.38;;;17.52;;
63738;SDS011;68816;45.558;10.070;2023-08-20T04:52:46;18.55;;;16.67;;
63738;SDS011;68816;45.558;10.070;2023-08-20T04:55:11;22.70;;;18.33;;
63738;SDS011;68816;45.558;10.070;2023-08-20T04:57:37;21.02;;;18.02;;
63738;SDS011;68816;45.558;10.070;2023-08-20T05:00:03;19.52;;;16.75;;
63738;SDS011;68816;45.558;10.070;2023-08-20T05:02:29;20.48;;;18.20;;
63738;SDS011;68816;45.558;10.070;2023-08-20T05:04:54;23.77;;;18.30;;
63738;SDS011;68816;45.558;10.070;2023-08-20T05:07:20;18.83;;;16.83;;
63738;SDS011;68816;45.558;10.070;2023-08-20T05:09:46;21.10;;;17.60;;
63738;SDS011;68816;45.558;10.070;2023-08-20T05:12:11;25.27;;;17.42;;
63738;SDS011;68816;45.558;10.070;2023-08-20T05:14:37;21.00;;;17.35;;
63738;SDS011;68816;45.558;10.070;2023-08-20T05:17:03;19.50;;;17.50;;
63738;SDS011;68816;45.558;10.070;2023-08-20T05:19:28;28.45;;;18.27;;
63738;SDS011;68816;45.558;10.070;2023-08-20T05:21:54;23.40;;;17.52;;
63738;SDS011;68816;45.558;10.070;2023-08-20T05:24:23;21.52;;;17.55;;
63738;SDS011;68816;45.558;10.070;2023-08-20T05:27:03;19.75;;;17.27;;
63738;SDS011;68816;45.558;10.070;2023-08-20T05:29:29;18.08;;;16.02;;
63738;SDS011;68816;45.558;10.070;2023-08-20T05:31:55;17.95;;;16.20;;
63738;SDS011;68816;45.558;10.070;2023-08-20T05:34:20;18.20;;;16.42;;
63738;SDS011;68816;45.558;10.070;2023-08-20T05:36:47;19.60;;;17.17;;
63738;SDS011;68816;45.558;10.070;2023-08-20T05:39:12;23.08;;;17.50;;
63738;SDS011;68816;45.558;10.070;2023-08-20T05:41:38;19.65;;;17.55;;
63738;SDS011;68816;45.558;10.070;2023-08-20T05:44:04;20.42;;;17.02;;
63738;SDS011;68816;45.558;10.070;2023-08-20T05:46:29;19.52;;;17.02;;
63738;SDS011;68816;45.558;10.070;2023-08-20T05:48:55;19.65;;;17.10;;
63738;SDS011;68816;45.558;10.070;2023-08-20T05:51:20;23.67;;;17.42;;
63738;SDS011;68816;45.558;10.070;2023-08-20T05:53:46;18.48;;;16.50;;
63738;SDS011;68816;45.558;10.070;2023-08-20T05:56:12;18.15;;;16.25;;
63738;SDS011;68816;45.558;10.070;2023-08-20T05:58:37;19.05;;;16.50;;
63738;SDS011;68816;45.558;10.070;2023-08-20T06:01:03;21.88;;;15.73;;
63738;SDS011;68816;45.558;10.070;2023-08-20T06:03:28;17.58;;;15.50;;
63738;SDS011;68816;45.558;10.070;2023-08-20T06:05:56;18.60;;;15.80;;
63738;SDS011;68816;45.558;10.070;2023-08-20T06:08:22;17.20;;;15.25;;
63738;SDS011;68816;45.558;10.070;2023-08-20T06:10:48;17.75;;;15.90;;
63738;SDS011;68816;45.558;10.070;2023-08-20T06:13:14;17.95;;;16.02;;
63738;SDS011;68816;45.558;10.070;2023-08-20T06:15:39;18.67;;;15.43;;
63738;SDS011;68816;45.558;10.070;2023-08-20T06:18:05;17.90;;;16.02;;
63738;SDS011;68816;45.558;10.070;2023-08-20T06:20:30;18.65;;;16.00;;
63738;SDS011;68816;45.558;10.070;2023-08-20T06:22:56;17.60;;;15.75;;
63738;SDS011;68816;45.558;10.070;2023-08-20T06:25:22;18.85;;;16.05;;
63738;SDS011;68816;45.558;10.070;2023-08-20T06:27:47;17.65;;;15.50;;
63738;SDS011;68816;45.558;10.070;2023-08-20T06:30:13;17.88;;;15.98;;
63738;SDS011;68816;45.558;10.070;2023-08-20T06:32:38;21.77;;;16.25;;
63738;SDS011;68816;45.558;10.070;2023-08-20T06:35:04;20.42;;;17.13;;
63738;SDS011;68816;45.558;10.070;2023-08-20T06:37:30;25.00;;;16.38;;
63738;SDS011;68816;45.558;10.070;2023-08-20T06:39:56;19.10;;;16.33;;
63738;SDS011;68816;45.558;10.070;2023-08-20T06:42:21;22.08;;;16.15;;
63738;SDS011;68816;45.558;10.070;2023-08-20T06:44:47;18.98;;;16.25;;
63738;SDS011;68816;45.558;10.070;2023-08-20T06:47:12;18.48;;;15.27;;
63738;SDS011;68816;45.558;10.070;2023-08-20T06:49:40;17.70;;;15.15;;
63738;SDS011;68816;45.558;10.070;2023-08-20T06:52:06;17.08;;;15.13;;
63738;SDS011;68816;45.558;10.070;2023-08-20T06:54:31;21.55;;;15.98;;
63738;SDS011;68816;45.558;10.070;2023-08-20T06:56:57;19.55;;;15.07;;
63738;SDS011;68816;45.558;10.070;2023-08-20T06:59:23;18.23;;;14.75;;
63738;SDS011;68816;45.558;10.070;2023-08-20T07:01:48;16.55;;;14.77;;
63738;SDS011;68816;45.558;10.070;2023-08-20T07:04:14;22.20;;;15.02;;
63738;SDS011;68816;45.558;10.070;2023-08-20T07:06:40;17.38;;;14.80;;
63738;SDS011;68816;45.558;10.070;2023-08-20T07:09:06;18.70;;;14.38;;
63738;SDS011;68816;45.558;10.070;2023-08-20T07:11:32;17.00;;;14.57;;
63738;SDS011;68816;45.558;10.070;2023-08-20T07:13:58;19.55;;;14.35;;
63738;SDS011;68816;45.558;10.070;2023-08-20T07:16:24;17.40;;;14.05;;
63738;SDS011;68816;45.558;10.070;2023-08-20T07:18:50;19.08;;;14.60;;
63738;SDS011;68816;45.558;10.070;2023-08-20T07:21:15;16.00;;;14.38;;
63738;SDS011;68816;45.558;10.070;2023-08-20T07:23:41;17.40;;;14.60;;
63738;SDS011;68816;45.558;10.070;2023-08-20T07:26:07;16.52;;;14.32;;
63738;SDS011;68816;45.558;10.070;2023-08-20T07:28:34;19.42;;;14.13;;
63738;SDS011;68816;45.558;10.070;2023-08-20T07:31:19;17.23;;;14.80;;
63738;SDS011;68816;45.558;10.070;2023-08-20T07:33:46;19.77;;;14.43;;
63738;SDS011;68816;45.558;10.070;2023-08-20T07:36:13;15.15;;;13.75;;
63738;SDS011;68816;45.558;10.070;2023-08-20T07:38:39;15.50;;;13.93;;
63738;SDS011;68816;45.558;10.070;2023-08-20T07:41:08;16.88;;;14.32;;
63738;SDS011;68816;45.558;10.070;2023-08-20T07:43:34;18.02;;;15.68;;
63738;SDS011;68816;45.558;10.070;2023-08-20T07:46:00;19.35;;;14.75;;
63738;SDS011;68816;45.558;10.070;2023-08-20T07:48:25;15.75;;;13.90;;
63738;SDS011;68816;45.558;10.070;2023-08-20T07:50:51;20.10;;;14.30;;
63738;SDS011;68816;45.558;10.070;2023-08-20T07:53:17;15.55;;;13.20;;
63738;SDS011;68816;45.558;10.070;2023-08-20T07:55:44;14.70;;;13.20;;
63738;SDS011;68816;45.558;10.070;2023-08-20T07:58:09;15.57;;;13.20;;
63738;SDS011;68816;45.558;10.070;2023-08-20T08:00:35;15.18;;;12.77;;
63738;SDS011;68816;45.558;10.070;2023-08-20T08:03:01;14.50;;;12.57;;
63738;SDS011;68816;45.558;10.070;2023-08-20T08:05:27;15.38;;;12.18;;
63738;SDS011;68816;45.558;10.070;2023-08-20T08:07:53;13.90;;;12.52;;
63738;SDS011;68816;45.558;10.070;2023-08-20T08:10:20;14.30;;;12.70;;
63738;SDS011;68816;45.558;10.070;2023-08-20T08:12:46;14.77;;;13.23;;
63738;SDS011;68816;45.558;10.070;2023-08-20T08:15:12;13.70;;;12.35;;
63738;SDS011;68816;45.558;10.070;2023-08-20T08:17:38;14.50;;;12.40;;
63738;SDS011;68816;45.558;10.070;2023-08-20T08:20:04;12.63;;;11.27;;
63738;SDS011;68816;45.558;10.070;2023-08-20T08:22:31;13.15;;;11.68;;
63738;SDS011;68816;45.558;10.070;2023-08-20T08:24:56;15.48;;;11.18;;
63738;SDS011;68816;45.558;10.070;2023-08-20T08:27:22;15.25;;;12.40;;
63738;SDS011;68816;45.558;10.070;2023-08-20T08:29:47;13.73;;;11.45;;
63738;SDS011;68816;45.558;10.070;2023-08-20T08:32:13;12.60;;;10.55;;
63738;SDS011;68816;45.558;10.070;2023-08-20T08:34:39;13.35;;;10.70;;
63738;SDS011;68816;45.558;10.070;2023-08-20T08:37:04;11.98;;;10.75;;
63738;SDS011;68816;45.558;10.070;2023-08-20T08:39:30;11.35;;;10.35;;
63738;SDS011;68816;45.558;10.070;2023-08-20T08:41:58;12.45;;;10.43;;
63738;SDS011;68816;45.558;10.070;2023-08-20T08:46:55;11.38;;;9.10;;
63738;SDS011;68816;45.558;10.070;2023-08-20T08:49:21;11.82;;;10.27;;
63738;SDS011;68816;45.558;10.070;2023-08-20T08:51:46;11.68;;;10.48;;
63738;SDS011;68816;45.558;10.070;2023-08-20T08:54:13;12.95;;;11.25;;
63738;SDS011;68816;45.558;10.070;2023-08-20T08:56:38;10.45;;;9.32;;
63738;SDS011;68816;45.558;10.070;2023-08-20T08:59:04;10.80;;;9.10;;
63738;SDS011;68816;45.558;10.070;2023-08-20T09:01:30;10.00;;;9.10;;
63738;SDS011;68816;45.558;10.070;2023-08-20T09:03:56;10.77;;;9.70;;
63738;SDS011;68816;45.558;10.070;2023-08-20T09:06:22;11.15;;;10.13;;
63738;SDS011;68816;45.558;10.070;2023-08-20T09:08:48;10.85;;;9.85;;
63738;SDS011;68816;45.558;10.070;2023-08-20T09:11:13;9.60;;;8.25;;
63738;SDS011;68816;45.558;10.070;2023-08-20T09:13:40;10.93;;;9.82;;
63738;SDS011;68816;45.558;10.070;2023-08-20T09:16:07;13.02;;;10.32;;
63738;SDS011;68816;45.558;10.070;2023-08-20T09:18:40;10.68;;;9.57;;
63738;SDS011;68816;45.558;10.070;2023-08-20T09:21:10;11.45;;;10.23;;
63738;SDS011;68816;45.558;10.070;2023-08-20T09:23:37;12.15;;;10.82;;
63738;SDS011;68816;45.558;10.070;2023-08-20T09:26:04;14.35;;;11.20;;
63738;SDS011;68816;45.558;10.070;2023-08-20T09:28:44;12.50;;;11.15;;
63738;SDS011;68816;45.558;10.070;2023-08-20T09:31:11;14.52;;;10.13;;
63738;SDS011;68816;45.558;10.070;2023-08-20T09:33:54;11.77;;;9.70;;
63738;SDS011;68816;45.558;10.070;2023-08-20T09:36:29;12.60;;;10.82;;
63738;SDS011;68816;45.558;10.070;2023-08-20T09:38:57;11.27;;;10.18;;
63738;SDS011;68816;45.558;10.070;2023-08-20T09:41:23;11.77;;;9.88;;
63738;SDS011;68816;45.558;10.070;2023-08-20T09:43:49;12.40;;;10.25;;
63738;SDS011;68816;45.558;10.070;2023-08-20T09:46:20;11.48;;;10.38;;
63738;SDS011;68816;45.558;10.070;2023-08-20T09:48:50;13.98;;;10.73;;
63738;SDS011;68816;45.558;10.070;2023-08-20T09:51:19;11.27;;;10.23;;
63738;SDS011;68816;45.558;10.070;2023-08-20T09:53:56;12.30;;;10.15;;
63738;SDS011;68816;45.558;10.070;2023-08-20T09:56:31;10.95;;;9.95;;
63738;SDS011;68816;45.558;10.070;2023-08-20T09:59:05;11.98;;;10.77;;
63738;SDS011;68816;45.558;10.070;2023-08-20T10:01:32;11.30;;;10.00;;
63738;SDS011;68816;45.558;10.070;2023-08-20T10:03:58;12.35;;;10.00;;
63738;SDS011;68816;45.558;10.070;2023-08-20T10:06:25;10.82;;;9.82;;
63738;SDS011;68816;45.558;10.070;2023-08-20T10:08:51;10.80;;;9.80;;
63738;SDS011;68816;45.558;10.070;2023-08-20T10:11:19;11.48;;;9.77;;
63738;SDS011;68816;45.558;10.070;2023-08-20T10:13:44;11.13;;;9.98;;
63738;SDS011;68816;45.558;10.070;2023-08-20T10:16:13;13.70;;;11.00;;
63738;SDS011;68816;45.558;10.070;2023-08-20T10:18:44;13.60;;;10.70;;
63738;SDS011;68816;45.558;10.070;2023-08-20T10:21:11;10.95;;;9.80;;
63738;SDS011;68816;45.558;10.070;2023-08-20T10:23:40;11.63;;;10.15;;
63738;SDS011;68816;45.558;10.070;2023-08-20T10:26:09;12.25;;;10.52;;
63738;SDS011;68816;45.558;10.070;2023-08-20T10:28:36;11.32;;;10.23;;
63738;SDS011;68816;45.558;10.070;2023-08-20T10:31:06;11.77;;;10.65;;
63738;SDS011;68816;45.558;10.070;2023-08-20T10:36:16;12.88;;;10.65;;
63738;SDS011;68816;45.558;10.070;2023-08-20T10:38:46;14.77;;;10.48;;
63738;SDS011;68816;45.558;10.070;2023-08-20T10:41:12;12.30;;;11.18;;
63738;SDS011;68816;45.558;10.070;2023-08-20T10:43:40;12.20;;;11.07;;
63738;SDS011;68816;45.558;10.070;2023-08-20T10:46:15;12.60;;;11.13;;
63738;SDS011;68816;45.558;10.070;2023-08-20T10:48:47;13.07;;;10.80;;
63738;SDS011;68816;45.558;10.070;2023-08-20T10:51:15;12.15;;;10.93;;
63738;SDS011;68816;45.558;10.070;2023-08-20T10:53:48;12.77;;;10.88;;
63738;SDS011;68816;45.558;10.070;2023-08-20T10:59:30;12.98;;;10.75;;
63738;SDS011;68816;45.558;10.070;2023-08-20T11:01:56;12.68;;;10.60;;
63738;SDS011;68816;45.558;10.070;2023-08-20T11:04:24;12.77;;;10.82;;
63738;SDS011;68816;45.558;10.070;2023-08-20T11:06:53;15.10;;;10.18;;
63738;SDS011;68816;45.558;10.070;2023-08-20T11:09:23;11.82;;;10.27;;
63738;SDS011;68816;45.558;10.070;2023-08-20T11:11:56;10.50;;;9.60;;
63738;SDS011;68816;45.558;10.070;2023-08-20T11:14:22;13.63;;;10.52;;
63738;SDS011;68816;45.558;10.070;2023-08-20T11:16:48;12.55;;;11.15;;
63738;SDS011;68816;45.558;10.070;2023-08-20T11:19:15;12.95;;;11.13;;
63738;SDS011;68816;45.558;10.070;2023-08-20T11:21:45;18.73;;;11.43;;
63738;SDS011;68816;45.558;10.070;2023-08-20T11:24:12;12.25;;;10.68;;
63738;SDS011;68816;45.558;10.070;2023-08-20T11:26:38;12.32;;;11.10;;
63738;SDS011;68816;45.558;10.070;2023-08-20T11:29:06;12.50;;;10.88;;
63738;SDS011;68816;45.558;10.070;2023-08-20T11:31:32;13.05;;;11.20;;
63738;SDS011;68816;45.558;10.070;2023-08-20T11:33:58;13.95;;;11.93;;
63738;SDS011;68816;45.558;10.070;2023-08-20T11:36:24;11.93;;;10.65;;
63738;SDS011;68816;45.558;10.070;2023-08-20T11:38:50;13.45;;;11.27;;
63738;SDS011;68816;45.558;10.070;2023-08-20T11:41:19;13.25;;;11.32;;
63738;SDS011;68816;45.558;10.070;2023-08-20T11:43:49;12.23;;;11.05;;
63738;SDS011;68816;45.558;10.070;2023-08-20T11:46:18;11.88;;;10.70;;
63738;SDS011;68816;45.558;10.070;2023-08-20T11:54:09;13.05;;;10.65;;
63738;SDS011;68816;45.558;10.070;2023-08-20T11:56:43;11.40;;;10.40;;
63738;SDS011;68816;45.558;10.070;2023-08-20T11:59:13;11.52;;;10.32;;
63738;SDS011;68816;45.558;10.070;2023-08-20T12:01:40;11.95;;;10.82;;
63738;SDS011;68816;45.558;10.070;2023-08-20T12:04:06;11.52;;;10.45;;
63738;SDS011;68816;45.558;10.070;2023-08-20T12:06:34;12.88;;;10.55;;
63738;SDS011;68816;45.558;10.070;2023-08-20T12:09:02;13.00;;;11.35;;
63738;SDS011;68816;45.558;10.070;2023-08-20T12:11:48;13.27;;;11.40;;
63738;SDS011;68816;45.558;10.070;2023-08-20T12:16:43;13.55;;;12.18;;
63738;SDS011;68816;45.558;10.070;2023-08-20T12:19:08;12.27;;;11.07;;
63738;SDS011;68816;45.558;10.070;2023-08-20T12:21:34;12.40;;;11.30;;
63738;SDS011;68816;45.558;10.070;2023-08-20T12:24:01;11.75;;;10.73;;
63738;SDS011;68816;45.558;10.070;2023-08-20T12:26:26;13.10;;;11.85;;
63738;SDS011;68816;45.558;10.070;2023-08-20T12:28:52;12.63;;;11.20;;
63738;SDS011;68816;45.558;10.070;2023-08-20T12:31:18;12.18;;;10.93;;
63738;SDS011;68816;45.558;10.070;2023-08-20T12:33:43;13.20;;;11.73;;
63738;SDS011;68816;45.558;10.070;2023-08-20T12:36:09;12.25;;;11.05;;
63738;SDS011;68816;45.558;10.070;2023-08-20T12:38:34;12.57;;;11.32;;
63738;SDS011;68816;45.558;10.070;2023-08-20T12:41:01;12.68;;;11.30;;
63738;SDS011;68816;45.558;10.070;2023-08-20T12:43:29;13.55;;;11.63;;
63738;SDS011;68816;45.558;10.070;2023-08-20T12:45:55;16.50;;;11.82;;
63738;SDS011;68816;45.558;10.070;2023-08-20T12:48:20;12.90;;;11.40;;
63738;SDS011;68816;45.558;10.070;2023-08-20T12:50:46;14.63;;;12.15;;
63738;SDS011;68816;45.558;10.070;2023-08-20T12:53:11;13.35;;;12.02;;
63738;SDS011;68816;45.558;10.070;2023-08-20T12:55:38;12.77;;;11.57;;
63738;SDS011;68816;45.558;10.070;2023-08-20T12:58:03;12.52;;;11.32;;
63738;SDS011;68816;45.558;10.070;2023-08-20T13:00:29;13.13;;;11.63;;
63738;SDS011;68816;45.558;10.070;2023-08-20T13:02:55;12.43;;;11.32;;
63738;SDS011;68816;45.558;10.070;2023-08-20T13:05:22;12.35;;;11.02;;
63738;SDS011;68816;45.558;10.070;2023-08-20T13:07:49;13.65;;;12.10;;
63738;SDS011;68816;45.558;10.070;2023-08-20T13:10:15;13.38;;;11.65;;
63738;SDS011;68816;45.558;10.070;2023-08-20T13:12:41;15.73;;;12.07;;
63738;SDS011;68816;45.558;10.070;2023-08-20T13:15:14;13.27;;;11.88;;
63738;SDS011;68816;45.558;10.070;2023-08-20T13:17:45;12.30;;;11.10;;
63738;SDS011;68816;45.558;10.070;2023-08-20T13:20:11;12.23;;;11.02;;
63738;SDS011;68816;45.558;10.070;2023-08-20T13:22:37;12.68;;;11.48;;
63738;SDS011;68816;45.558;10.070;2023-08-20T13:25:03;13.35;;;12.02;;
63738;SDS011;68816;45.558;10.070;2023-08-20T13:27:29;11.60;;;10.50;;
63738;SDS011;68816;45.558;10.070;2023-08-20T13:29:56;12.45;;;11.25;;
63738;SDS011;68816;45.558;10.070;2023-08-20T13:32:22;12.55;;;11.43;;
63738;SDS011;68816;45.558;10.070;2023-08-20T13:34:48;13.20;;;11.63;;
63738;SDS011;68816;45.558;10.070;2023-08-20T13:37:14;12.07;;;10.85;;
63738;SDS011;68816;45.558;10.070;2023-08-20T13:39:40;13.60;;;11.80;;
63738;SDS011;68816;45.558;10.070;2023-08-20T13:42:05;13.18;;;11.82;;
63738;SDS011;68816;45.558;10.070;2023-08-20T13:44:31;12.70;;;11.60;;
63738;SDS011;68816;45.558;10.070;2023-08-20T13:46:56;13.73;;;11.23;;
63738;SDS011;68816;45.558;10.070;2023-08-20T13:49:22;15.23;;;11.38;;
63738;SDS011;68816;45.558;10.070;2023-08-20T13:51:48;12.60;;;11.30;;
63738;SDS011;68816;45.558;10.070;2023-08-20T13:54:13;16.08;;;12.25;;
63738;SDS011;68816;45.558;10.070;2023-08-20T13:56:41;13.10;;;11.40;;
63738;SDS011;68816;45.558;10.070;2023-08-20T13:59:08;13.27;;;11.48;;
63738;SDS011;68816;45.558;10.070;2023-08-20T14:01:37;12.68;;;11.57;;
63738;SDS011;68816;45.558;10.070;2023-08-20T14:04:03;13.00;;;11.75;;
63738;SDS011;68816;45.558;10.070;2023-08-20T14:06:29;12.70;;;11.30;;
63738;SDS011;68816;45.558;10.070;2023-08-20T14:08:55;13.80;;;12.15;;
63738;SDS011;68816;45.558;10.070;2023-08-20T14:11:21;13.77;;;11.98;;
63738;SDS011;68816;45.558;10.070;2023-08-20T14:13:49;13.30;;;10.73;;
63738;SDS011;68816;45.558;10.070;2023-08-20T14:16:14;12.60;;;11.40;;
63738;SDS011;68816;45.558;10.070;2023-08-20T14:18:40;12.65;;;11.35;;
63738;SDS011;68816;45.558;10.070;2023-08-20T14:21:06;12.32;;;11.18;;
63738;SDS011;68816;45.558;10.070;2023-08-20T14:23:31;12.20;;;11.00;;
63738;SDS011;68816;45.558;10.070;2023-08-20T14:25:57;14.20;;;11.27;;
63738;SDS011;68816;45.558;10.070;2023-08-20T14:28:23;12.60;;;11.30;;
63738;SDS011;68816;45.558;10.070;2023-08-20T14:30:49;13.35;;;11.98;;